Time;durP1;ratioP1;P1;durP2;ratioP2;P2;SDS_P1;SDS_P2;PMS_P1;PMS_P2;Temp;Humidity;BMP_temperature;BMP_pressure;BME280_temperature;BME280_humidity;BME280_pressure;Samples;Min_cycle;Max_cycle;Signal;HPM_P1;HPM_P2
2022/07/31 00:01:13;;;;;;;;;;;19.90;92.50;;;;;;5089080;28;19924;-72
2022/07/31 00:03:39;;;;;;;;;;;19.90;92.60;;;;;;5093057;28;19978;-72
2022/07/31 00:06:04;;;;;;;;;;;19.90;92.70;;;;;;5091594;28;19928;-72
2022/07/31 00:08:30;;;;;;;;;;;19.80;92.90;;;;;;5091166;28;19924;-72
2022/07/31 00:10:56;;;;;;;;;;;19.80;93.00;;;;;;5078696;28;20015;-72
2022/07/31 00:13:22;;;;;;;;;;;19.80;93.10;;;;;;5092588;28;19935;-72
2022/07/31 00:15:48;;;;;;;;;;;19.80;93.30;;;;;;5088670;28;19990;-72
2022/07/31 00:18:13;;;;;;;;;;;19.80;93.40;;;;;;5080861;28;19924;-72
2022/07/31 00:20:39;;;;;;;;;;;19.80;93.40;;;;;;5091107;28;20334;-73
2022/07/31 00:23:04;;;;;;;;;;;19.80;93.60;;;;;;5091667;28;20100;-71
2022/07/31 00:25:30;;;;;;;;;;;19.80;93.70;;;;;;5079074;28;19951;-72
2022/07/31 00:27:56;;;;;;;;;;;19.80;93.80;;;;;;5083569;28;20015;-72
2022/07/31 00:30:22;;;;;;;;;;;19.80;94.00;;;;;;5081024;28;20440;-72
2022/07/31 00:32:47;;;;;;;;;;;19.80;93.80;;;;;;5088129;28;19956;-72
2022/07/31 00:35:13;;;;;;;;;;;19.80;93.90;;;;;;5078906;28;20021;-72
2022/07/31 00:37:39;;;;;;;;;;;19.80;94.10;;;;;;5090899;28;20716;-73
2022/07/31 00:40:05;;;;;;;;;;;19.80;94.10;;;;;;5091844;28;19931;-72
2022/07/31 00:42:31;;;;;;;;;;;19.70;94.00;;;;;;5087958;28;19924;-72
2022/07/31 00:44:56;;;;;;;;;;;19.80;94.10;;;;;;5072149;28;20738;-72
2022/07/31 00:47:22;;;;;;;;;;;19.80;94.10;;;;;;5071736;28;19950;-72
2022/07/31 00:49:47;;;;;;;;;;;19.80;94.30;;;;;;5072338;28;19932;-72
2022/07/31 00:52:13;;;;;;;;;;;19.70;94.30;;;;;;5072859;28;19931;-72
2022/07/31 00:54:39;;;;;;;;;;;19.70;94.50;;;;;;5072657;28;19928;-72
2022/07/31 00:57:05;;;;;;;;;;;19.70;94.50;;;;;;5072259;28;20015;-72
2022/07/31 00:59:30;;;;;;;;;;;19.70;94.60;;;;;;5072668;28;20073;-72
2022/07/31 01:01:57;;;;;;;;;;;19.70;94.80;;;;;;5071704;28;20015;-72
2022/07/31 01:04:22;;;;;;;;;;;19.70;95.00;;;;;;5071719;28;19940;-72
2022/07/31 01:06:48;;;;;;;;;;;19.60;95.20;;;;;;5071620;28;19924;-72
2022/07/31 01:09:13;;;;;;;;;;;19.70;95.20;;;;;;5071810;28;19924;-72
2022/07/31 01:11:49;;;;;;;;;;;19.60;95.30;;;;;;5081261;28;19928;-72
2022/07/31 01:14:15;;;;;;;;;;;19.60;95.40;;;;;;5077685;28;19993;-72
2022/07/31 01:16:45;;;;;;;;;;;19.60;95.50;;;;;;5091312;28;19947;-72
2022/07/31 01:19:17;;;;;;;;;;;19.60;95.60;;;;;;5089942;28;19924;-72
2022/07/31 01:21:48;;;;;;;;;;;19.60;95.70;;;;;;5090675;28;19932;-72
2022/07/31 01:24:38;;;;;;;;;;;19.60;95.90;;;;;;5090352;28;19924;-72
2022/07/31 01:27:14;;;;;;;;;;;19.50;95.80;;;;;;5089945;28;19932;-72
2022/07/31 01:29:43;;;;;;;;;;;19.50;95.70;;;;;;5090787;28;19931;-72
2022/07/31 01:32:22;;;;;;;;;;;19.50;95.80;;;;;;5088353;28;19924;-72
2022/07/31 01:34:51;;;;;;;;;;;19.50;95.70;;;;;;5077757;28;19924;-72
2022/07/31 01:37:20;;;;;;;;;;;19.40;95.40;;;;;;5077221;28;19944;-72
2022/07/31 01:39:49;;;;;;;;;;;19.40;95.40;;;;;;5077433;28;19932;-72
2022/07/31 01:42:17;;;;;;;;;;;19.40;95.40;;;;;;5058231;28;20062;-72
2022/07/31 01:44:44;;;;;;;;;;;19.40;95.50;;;;;;5070836;28;20019;-71
2022/07/31 01:47:12;;;;;;;;;;;19.40;95.60;;;;;;5070737;28;20294;-72
2022/07/31 01:49:39;;;;;;;;;;;19.40;95.60;;;;;;5070876;28;19932;-72
2022/07/31 01:52:05;;;;;;;;;;;19.30;95.60;;;;;;5070737;28;19932;-72
2022/07/31 01:54:30;;;;;;;;;;;19.30;95.80;;;;;;5070857;28;20298;-72
2022/07/31 01:56:58;;;;;;;;;;;19.30;95.60;;;;;;5069206;28;19931;-72
2022/07/31 01:59:24;;;;;;;;;;;19.30;95.70;;;;;;5069968;28;19978;-72
2022/07/31 02:01:50;;;;;;;;;;;19.20;95.60;;;;;;5070777;28;20426;-72
2022/07/31 02:04:17;;;;;;;;;;;19.20;95.70;;;;;;5070663;28;19924;-72
2022/07/31 02:06:45;;;;;;;;;;;19.20;95.70;;;;;;5070765;28;19925;-72
2022/07/31 02:09:11;;;;;;;;;;;19.10;95.70;;;;;;5068767;28;20399;-72
2022/07/31 02:11:37;;;;;;;;;;;19.10;95.80;;;;;;5079612;28;20382;-72
2022/07/31 02:14:03;;;;;;;;;;;19.10;96.00;;;;;;5074191;28;20795;-73
2022/07/31 02:16:29;;;;;;;;;;;19.10;95.90;;;;;;5079776;28;20355;-72
2022/07/31 02:18:56;;;;;;;;;;;19.10;95.90;;;;;;5090192;28;19991;-72
2022/07/31 02:21:23;;;;;;;;;;;19.00;95.90;;;;;;5089946;28;19932;-72
2022/07/31 02:23:48;;;;;;;;;;;19.10;96.00;;;;;;5089829;28;19930;-71
2022/07/31 02:26:14;;;;;;;;;;;19.00;96.10;;;;;;5071462;28;19924;-72
2022/07/31 02:28:42;;;;;;;;;;;19.00;95.80;;;;;;5087732;28;19939;-72
2022/07/31 02:31:09;;;;;;;;;;;19.00;96.00;;;;;;5089820;28;19928;-72
2022/07/31 02:33:35;;;;;;;;;;;19.00;95.80;;;;;;5085712;28;19928;-72
2022/07/31 02:36:01;;;;;;;;;;;19.00;96.00;;;;;;5078814;28;20495;-72
2022/07/31 02:38:27;;;;;;;;;;;19.00;95.90;;;;;;5089205;28;19932;-72
2022/07/31 02:40:55;;;;;;;;;;;19.00;95.80;;;;;;5089593;28;19924;-72
2022/07/31 02:43:21;;;;;;;;;;;19.00;95.70;;;;;;5089369;28;19947;-72
2022/07/31 02:45:47;;;;;;;;;;;19.00;95.80;;;;;;5089681;28;20374;-72
2022/07/31 02:48:12;;;;;;;;;;;19.00;95.70;;;;;;5088826;28;19958;-72
2022/07/31 02:50:38;;;;;;;;;;;19.00;95.60;;;;;;5089742;28;19947;-72
2022/07/31 02:53:04;;;;;;;;;;;19.00;95.40;;;;;;5087219;28;19924;-72
2022/07/31 02:55:30;;;;;;;;;;;19.00;95.60;;;;;;5068891;28;19932;-72
2022/07/31 02:57:55;;;;;;;;;;;18.90;95.60;;;;;;5072401;28;19932;-73
2022/07/31 03:00:21;;;;;;;;;;;18.90;95.80;;;;;;5080564;28;19924;-72
2022/07/31 03:02:50;;;;;;;;;;;18.90;95.80;;;;;;5069478;28;19924;-73
2022/07/31 03:05:15;;;;;;;;;;;18.90;95.70;;;;;;5079567;28;20392;-72
2022/07/31 03:07:41;;;;;;;;;;;18.90;95.90;;;;;;5089436;28;20017;-72
2022/07/31 03:10:09;;;;;;;;;;;18.90;95.80;;;;;;5089314;28;19928;-72
2022/07/31 03:12:36;;;;;;;;;;;18.90;95.90;;;;;;5086276;28;19985;-72
2022/07/31 03:15:02;;;;;;;;;;;18.90;95.80;;;;;;5069223;28;19964;-72
2022/07/31 03:17:28;;;;;;;;;;;18.80;95.90;;;;;;5086577;28;20016;-72
2022/07/31 03:19:54;;;;;;;;;;;18.80;95.60;;;;;;5089699;28;20033;-72
2022/07/31 03:22:19;;;;;;;;;;;18.80;95.80;;;;;;5089466;28;20301;-72
2022/07/31 03:24:45;;;;;;;;;;;18.80;95.80;;;;;;5078709;28;19924;-72
2022/07/31 03:27:10;;;;;;;;;;;18.70;95.80;;;;;;5069486;28;19997;-72
2022/07/31 03:29:37;;;;;;;;;;;18.70;95.90;;;;;;5069626;28;19928;-72
2022/07/31 03:32:03;;;;;;;;;;;18.70;95.90;;;;;;5069683;28;19928;-72
2022/07/31 03:34:28;;;;;;;;;;;18.80;96.00;;;;;;5069237;28;19928;-72
2022/07/31 03:36:54;;;;;;;;;;;18.80;96.00;;;;;;5085654;28;20375;-72
2022/07/31 03:39:19;;;;;;;;;;;18.80;96.10;;;;;;5089301;28;19928;-72
2022/07/31 03:41:45;;;;;;;;;;;18.70;96.00;;;;;;5088364;28;19977;-72
2022/07/31 03:44:10;;;;;;;;;;;18.70;96.10;;;;;;5087211;28;20433;-72
2022/07/31 03:46:36;;;;;;;;;;;18.70;96.20;;;;;;5086928;28;19968;-72
2022/07/31 03:49:02;;;;;;;;;;;18.70;96.20;;;;;;5088833;28;20275;-72
2022/07/31 03:51:27;;;;;;;;;;;18.60;96.30;;;;;;5087754;28;19967;-72
2022/07/31 03:53:53;;;;;;;;;;;18.60;96.30;;;;;;5088498;28;20429;-72
2022/07/31 03:56:19;;;;;;;;;;;18.60;96.40;;;;;;5087790;28;19985;-72
2022/07/31 03:58:45;;;;;;;;;;;18.60;96.40;;;;;;5089101;28;19924;-72
2022/07/31 04:01:10;;;;;;;;;;;18.60;96.60;;;;;;5087583;28;20466;-72
2022/07/31 04:03:37;;;;;;;;;;;18.60;96.70;;;;;;5088902;28;19932;-72
2022/07/31 04:06:02;;;;;;;;;;;18.60;96.80;;;;;;5088292;28;19932;-72
2022/07/31 04:08:28;;;;;;;;;;;18.60;96.70;;;;;;5088572;28;20294;-72
2022/07/31 04:10:53;;;;;;;;;;;18.60;96.70;;;;;;5086948;28;19930;-71
2022/07/31 04:13:19;;;;;;;;;;;18.60;96.60;;;;;;5088548;28;20035;-72
2022/07/31 04:15:44;;;;;;;;;;;18.60;96.60;;;;;;5088023;28;20462;-72
2022/07/31 04:18:09;;;;;;;;;;;18.60;96.70;;;;;;5088603;28;19928;-72
2022/07/31 04:20:35;;;;;;;;;;;18.60;96.60;;;;;;5088468;28;19924;-72
2022/07/31 04:23:02;;;;;;;;;;;18.60;96.80;;;;;;5091535;28;20676;-73
2022/07/31 04:25:28;;;;;;;;;;;18.60;96.70;;;;;;5091534;28;20714;-72
2022/07/31 04:27:53;;;;;;;;;;;18.70;96.80;;;;;;5092196;28;19931;-72
2022/07/31 04:30:19;;;;;;;;;;;18.60;96.80;;;;;;5086936;28;19925;-72
2022/07/31 04:32:44;;;;;;;;;;;18.60;96.80;;;;;;5082284;28;20711;-72
2022/07/31 04:35:10;;;;;;;;;;;18.60;96.80;;;;;;5075708;28;19925;-72
2022/07/31 04:37:36;;;;;;;;;;;18.70;96.70;;;;;;5072203;28;19925;-73
2022/07/31 04:40:02;;;;;;;;;;;18.70;96.60;;;;;;5072271;28;19924;-72
2022/07/31 04:42:28;;;;;;;;;;;18.60;96.60;;;;;;5072612;28;19983;-73
2022/07/31 04:44:54;;;;;;;;;;;18.60;96.80;;;;;;5072379;28;20378;-73
2022/07/31 04:47:19;;;;;;;;;;;18.70;96.90;;;;;;5072759;28;19975;-72
2022/07/31 04:49:45;;;;;;;;;;;18.70;96.90;;;;;;5073031;28;20309;-72
2022/07/31 04:52:10;;;;;;;;;;;18.70;96.80;;;;;;5071983;28;19929;-72
2022/07/31 04:54:36;;;;;;;;;;;18.80;96.80;;;;;;5072619;28;20386;-72
2022/07/31 04:57:02;;;;;;;;;;;18.80;96.90;;;;;;5071960;28;20016;-72
2022/07/31 04:59:27;;;;;;;;;;;18.90;96.80;;;;;;5072929;28;20003;-72
2022/07/31 05:01:53;;;;;;;;;;;18.90;96.90;;;;;;5072072;28;20434;-72
2022/07/31 05:04:18;;;;;;;;;;;18.90;96.70;;;;;;5071174;28;19977;-72
2022/07/31 05:06:50;;;;;;;;;;;19.00;96.70;;;;;;5071221;28;19925;-72
2022/07/31 05:09:23;;;;;;;;;;;19.00;97.00;;;;;;5071788;28;20034;-72
2022/07/31 05:11:49;;;;;;;;;;;19.00;97.10;;;;;;5071866;28;19977;-72
2022/07/31 05:14:15;;;;;;;;;;;19.10;96.90;;;;;;5072792;28;20334;-72
2022/07/31 05:16:41;;;;;;;;;;;19.10;97.10;;;;;;5072264;28;20381;-72
2022/07/31 05:19:07;;;;;;;;;;;19.10;97.10;;;;;;5071777;28;19976;-72
2022/07/31 05:21:32;;;;;;;;;;;19.10;97.30;;;;;;5071435;28;20007;-72
2022/07/31 05:23:59;;;;;;;;;;;19.10;97.30;;;;;;5074029;28;19924;-72
2022/07/31 05:26:25;;;;;;;;;;;19.10;97.50;;;;;;5072688;28;20387;-72
2022/07/31 05:28:51;;;;;;;;;;;19.10;97.30;;;;;;5073344;28;20007;-73
2022/07/31 05:31:17;;;;;;;;;;;19.20;97.30;;;;;;5072487;28;19978;-72
2022/07/31 05:33:43;;;;;;;;;;;19.20;97.30;;;;;;5073802;28;19924;-72
2022/07/31 05:36:09;;;;;;;;;;;19.30;97.30;;;;;;5070838;28;19947;-72
2022/07/31 05:38:35;;;;;;;;;;;19.40;97.30;;;;;;5087908;28;20383;-72
2022/07/31 05:41:00;;;;;;;;;;;19.40;97.30;;;;;;5090949;28;20355;-72
2022/07/31 05:43:26;;;;;;;;;;;19.40;97.20;;;;;;5090725;28;19924;-72
2022/07/31 05:45:52;;;;;;;;;;;19.50;97.40;;;;;;5091052;28;19935;-72
2022/07/31 05:48:17;;;;;;;;;;;19.60;97.20;;;;;;5088484;28;19924;-73
2022/07/31 05:50:44;;;;;;;;;;;19.60;97.20;;;;;;5090906;28;19931;-72
2022/07/31 05:53:14;;;;;;;;;;;19.70;97.10;;;;;;5073335;28;19928;-72
2022/07/31 05:55:39;;;;;;;;;;;19.60;97.30;;;;;;5070722;28;20021;-72
2022/07/31 05:58:05;;;;;;;;;;;19.70;97.00;;;;;;5070227;28;20390;-72
2022/07/31 06:00:31;;;;;;;;;;;19.70;97.00;;;;;;5069240;28;20039;-72
2022/07/31 06:02:58;;;;;;;;;;;19.80;97.20;;;;;;5074410;28;20311;-72
2022/07/31 06:05:24;;;;;;;;;;;19.80;97.20;;;;;;5091057;28;20622;-72
2022/07/31 06:07:50;;;;;;;;;;;19.90;97.00;;;;;;5086178;28;19932;-72
2022/07/31 06:10:15;;;;;;;;;;;20.00;96.90;;;;;;5070526;28;20051;-72
2022/07/31 06:12:41;;;;;;;;;;;20.00;96.70;;;;;;5074333;28;19929;-72
2022/07/31 06:15:07;;;;;;;;;;;20.10;96.70;;;;;;5090365;28;19935;-72
2022/07/31 06:17:32;;;;;;;;;;;20.10;96.60;;;;;;5090020;28;19932;-72
2022/07/31 06:19:58;;;;;;;;;;;20.10;96.70;;;;;;5090452;28;19928;-72
2022/07/31 06:22:23;;;;;;;;;;;20.10;96.60;;;;;;5086032;28;19977;-72
2022/07/31 06:24:49;;;;;;;;;;;20.20;96.70;;;;;;5080964;28;19931;-72
2022/07/31 06:27:14;;;;;;;;;;;20.20;96.40;;;;;;5089730;28;19930;-72
2022/07/31 06:29:40;;;;;;;;;;;20.30;96.40;;;;;;5078116;28;19925;-72
2022/07/31 06:32:06;;;;;;;;;;;20.30;96.60;;;;;;5086060;28;20031;-72
2022/07/31 06:34:31;;;;;;;;;;;20.40;96.60;;;;;;5078343;28;19974;-72
2022/07/31 06:36:57;;;;;;;;;;;20.40;96.50;;;;;;5085553;28;19949;-72
2022/07/31 06:39:22;;;;;;;;;;;20.40;96.70;;;;;;5089317;28;19924;-72
2022/07/31 06:41:47;;;;;;;;;;;20.40;96.40;;;;;;5085067;28;20770;-72
2022/07/31 06:44:16;;;;;;;;;;;20.50;96.50;;;;;;5068706;28;19932;-72
2022/07/31 06:46:42;;;;;;;;;;;20.60;96.70;;;;;;5069139;28;19978;-72
2022/07/31 06:49:08;;;;;;;;;;;20.60;96.10;;;;;;5079767;28;20268;-72
2022/07/31 06:51:34;;;;;;;;;;;20.70;95.90;;;;;;5088544;28;20381;-72
2022/07/31 06:54:00;;;;;;;;;;;20.60;95.50;;;;;;5087769;28;20443;-72
2022/07/31 06:56:26;;;;;;;;;;;20.70;95.70;;;;;;5084719;28;19924;-72
2022/07/31 06:58:52;;;;;;;;;;;20.80;95.70;;;;;;5068430;28;19932;-72
2022/07/31 07:01:17;;;;;;;;;;;20.90;95.70;;;;;;5068677;28;20397;-72
2022/07/31 07:03:43;;;;;;;;;;;21.00;95.70;;;;;;5069176;28;19979;-72
2022/07/31 07:06:08;;;;;;;;;;;21.00;95.40;;;;;;5068740;28;20012;-72
2022/07/31 07:08:34;;;;;;;;;;;21.10;95.00;;;;;;5068756;28;19928;-72
2022/07/31 07:10:59;;;;;;;;;;;21.10;95.10;;;;;;5069564;28;20434;-72
2022/07/31 07:13:25;;;;;;;;;;;21.20;95.00;;;;;;5069936;28;20011;-72
2022/07/31 07:15:50;;;;;;;;;;;21.20;94.90;;;;;;5070665;28;19966;-72
2022/07/31 07:18:17;;;;;;;;;;;21.20;94.80;;;;;;5070019;28;19924;-72
2022/07/31 07:20:42;;;;;;;;;;;21.20;94.70;;;;;;5070264;28;19993;-72
2022/07/31 07:23:08;;;;;;;;;;;21.20;94.90;;;;;;5070077;28;19924;-72
2022/07/31 07:25:33;;;;;;;;;;;21.20;94.80;;;;;;5070316;28;19977;-72
2022/07/31 07:27:59;;;;;;;;;;;21.30;94.80;;;;;;5069751;28;20493;-72
2022/07/31 07:30:27;;;;;;;;;;;21.30;94.40;;;;;;5070572;28;20028;-73
2022/07/31 07:32:53;;;;;;;;;;;21.30;94.20;;;;;;5070175;28;20065;-72
2022/07/31 07:35:19;;;;;;;;;;;21.30;93.90;;;;;;5077044;28;20015;-72
2022/07/31 07:37:44;;;;;;;;;;;21.30;94.00;;;;;;5089428;28;20058;-72
2022/07/31 07:40:10;;;;;;;;;;;21.30;94.20;;;;;;5085645;28;19928;-72
2022/07/31 07:42:36;;;;;;;;;;;21.30;93.90;;;;;;5068920;28;20017;-72
2022/07/31 07:45:01;;;;;;;;;;;21.30;94.00;;;;;;5086042;28;20412;-73
2022/07/31 07:47:27;;;;;;;;;;;21.30;93.80;;;;;;5089472;28;19931;-72
2022/07/31 07:49:52;;;;;;;;;;;21.40;93.80;;;;;;5088650;28;19930;-72
2022/07/31 07:52:18;;;;;;;;;;;21.40;93.90;;;;;;5089199;28;20019;-72
2022/07/31 07:54:43;;;;;;;;;;;21.40;93.80;;;;;;5088780;28;20411;-73
2022/07/31 07:57:13;;;;;;;;;;;21.40;93.70;;;;;;5090058;28;19924;-73
2022/07/31 07:59:38;;;;;;;;;;;21.40;93.70;;;;;;5091124;28;19969;-72
2022/07/31 08:02:04;;;;;;;;;;;21.50;93.70;;;;;;5093013;28;19924;-72
2022/07/31 08:04:29;;;;;;;;;;;21.60;93.70;;;;;;5092556;28;19924;-73
2022/07/31 08:06:55;;;;;;;;;;;21.60;93.70;;;;;;5092897;28;19924;-72
2022/07/31 08:09:21;;;;;;;;;;;21.70;93.70;;;;;;5091699;28;19925;-72
2022/07/31 08:11:47;;;;;;;;;;;21.80;93.90;;;;;;5092768;28;20015;-72
2022/07/31 08:14:13;;;;;;;;;;;21.80;93.40;;;;;;5091987;28;20015;-72
2022/07/31 08:16:39;;;;;;;;;;;21.80;93.00;;;;;;5092875;28;20015;-72
2022/07/31 08:19:04;;;;;;;;;;;21.80;93.40;;;;;;5081851;28;19932;-72
2022/07/31 08:21:30;;;;;;;;;;;21.90;93.50;;;;;;5073782;28;19928;-72
2022/07/31 08:23:56;;;;;;;;;;;21.90;92.80;;;;;;5072828;28;19929;-73
2022/07/31 08:26:21;;;;;;;;;;;22.00;93.10;;;;;;5069714;28;19929;-72
2022/07/31 08:28:47;;;;;;;;;;;22.10;93.30;;;;;;5076607;28;19928;-73
2022/07/31 08:31:14;;;;;;;;;;;22.20;93.30;;;;;;5073872;28;19924;-72
2022/07/31 08:33:39;;;;;;;;;;;22.40;93.20;;;;;;5074508;28;20003;-73
2022/07/31 08:36:07;;;;;;;;;;;22.50;93.30;;;;;;5071054;28;20449;-73
2022/07/31 08:38:34;;;;;;;;;;;22.60;93.00;;;;;;5071673;28;20010;-73
2022/07/31 08:40:59;;;;;;;;;;;22.80;92.90;;;;;;5066694;28;20658;-73
2022/07/31 08:43:26;;;;;;;;;;;22.90;92.60;;;;;;5065481;28;19935;-73
2022/07/31 08:45:52;;;;;;;;;;;23.00;92.70;;;;;;5074305;28;20353;-73
2022/07/31 08:48:20;;;;;;;;;;;23.10;92.20;;;;;;5080119;28;19924;-73
2022/07/31 08:50:46;;;;;;;;;;;23.20;91.80;;;;;;5069228;28;19932;-73
2022/07/31 08:53:14;;;;;;;;;;;23.20;92.40;;;;;;5071516;28;19924;-73
2022/07/31 08:55:42;;;;;;;;;;;23.30;91.90;;;;;;5070895;28;19928;-73
2022/07/31 08:58:07;;;;;;;;;;;23.30;91.70;;;;;;5081058;28;19924;-72
2022/07/31 09:00:33;;;;;;;;;;;23.30;91.90;;;;;;5071900;28;20417;-69
2022/07/31 09:02:59;;;;;;;;;;;23.20;91.40;;;;;;5085234;28;20362;-72
2022/07/31 09:05:24;;;;;;;;;;;23.20;91.60;;;;;;5069604;28;19931;-72
2022/07/31 09:07:50;;;;;;;;;;;23.20;91.80;;;;;;5066229;28;19944;-73
2022/07/31 09:10:24;;;;;;;;;;;23.10;91.90;;;;;;5082512;28;19967;-72
2022/07/31 09:12:50;;;;;;;;;;;23.00;92.00;;;;;;5074805;28;19924;-72
2022/07/31 09:15:28;;;;;;;;;;;23.00;92.10;;;;;;5078448;28;20398;-73
2022/07/31 09:17:54;;;;;;;;;;;22.90;91.70;;;;;;5070798;28;19924;-72
2022/07/31 09:20:23;;;;;;;;;;;22.80;91.70;;;;;;5073234;28;19937;-72
2022/07/31 09:23:02;;;;;;;;;;;22.70;92.10;;;;;;5083822;28;20301;-73
2022/07/31 09:25:28;;;;;;;;;;;22.50;92.00;;;;;;5074575;28;20469;-72
2022/07/31 09:27:59;;;;;;;;;;;22.50;92.70;;;;;;5074177;28;20039;-72
2022/07/31 09:30:25;;;;;;;;;;;22.40;93.30;;;;;;5089535;28;19924;-72
2022/07/31 09:32:51;;;;;;;;;;;22.30;93.40;;;;;;5086597;28;19924;-72
2022/07/31 09:35:16;;;;;;;;;;;22.20;93.90;;;;;;5075296;28;20768;-72
2022/07/31 09:37:45;;;;;;;;;;;22.10;94.00;;;;;;5081417;28;19999;-72
2022/07/31 09:40:11;;;;;;;;;;;22.10;94.40;;;;;;5070394;28;19947;-72
2022/07/31 09:42:37;;;;;;;;;;;22.00;94.80;;;;;;5081103;28;19932;-72
2022/07/31 09:45:03;;;;;;;;;;;21.90;95.10;;;;;;5073641;28;19924;-72
2022/07/31 09:47:29;;;;;;;;;;;21.90;95.40;;;;;;5070945;28;19932;-72
2022/07/31 09:49:59;;;;;;;;;;;21.80;95.70;;;;;;5070610;28;20015;-72
2022/07/31 09:52:25;;;;;;;;;;;21.80;96.60;;;;;;5081405;28;20070;-73
2022/07/31 09:55:03;;;;;;;;;;;21.80;96.60;;;;;;5068356;28;19924;-72
2022/07/31 09:57:29;;;;;;;;;;;21.80;96.90;;;;;;5080094;28;19931;-73
2022/07/31 09:59:54;;;;;;;;;;;21.80;97.10;;;;;;5081469;28;19924;-73
2022/07/31 10:02:20;;;;;;;;;;;21.80;97.50;;;;;;5064926;28;19924;-72
2022/07/31 10:04:47;;;;;;;;;;;21.80;97.80;;;;;;5075929;28;19939;-73
2022/07/31 10:07:13;;;;;;;;;;;21.80;98.30;;;;;;5085760;28;20302;-73
2022/07/31 10:09:39;;;;;;;;;;;21.80;98.70;;;;;;5076508;28;19924;-73
2022/07/31 10:12:05;;;;;;;;;;;21.70;99.00;;;;;;5075729;28;19924;-73
2022/07/31 10:14:34;;;;;;;;;;;21.70;98.70;;;;;;5080653;28;20412;-72
2022/07/31 10:17:03;;;;;;;;;;;21.60;98.80;;;;;;5069645;28;19924;-72
2022/07/31 10:19:31;;;;;;;;;;;21.50;98.90;;;;;;5072038;28;20021;-72
2022/07/31 10:22:00;;;;;;;;;;;21.50;99.70;;;;;;5074425;28;19924;-72
2022/07/31 10:24:27;;;;;;;;;;;21.50;99.70;;;;;;5073664;28;20464;-71
2022/07/31 10:26:57;;;;;;;;;;;21.50;99.90;;;;;;5076381;28;20039;-71
2022/07/31 10:29:23;;;;;;;;;;;21.50;99.90;;;;;;5079009;28;19939;-71
2022/07/31 10:31:49;;;;;;;;;;;21.40;99.90;;;;;;5077099;28;19924;-71
2022/07/31 10:34:15;;;;;;;;;;;21.40;99.90;;;;;;5073400;28;20082;-71
2022/07/31 10:36:44;;;;;;;;;;;21.40;99.90;;;;;;5069762;28;19924;-71
2022/07/31 10:39:09;;;;;;;;;;;21.40;99.90;;;;;;5078095;28;19932;-72
2022/07/31 10:41:35;;;;;;;;;;;21.30;99.90;;;;;;5089973;28;19937;-71
2022/07/31 10:44:12;;;;;;;;;;;21.30;99.90;;;;;;5090035;28;19946;-72
2022/07/31 10:46:37;;;;;;;;;;;21.30;99.90;;;;;;5089760;28;20677;-73
2022/07/31 10:49:03;;;;;;;;;;;21.20;99.90;;;;;;5079884;28;19928;-71
2022/07/31 10:51:30;;;;;;;;;;;21.20;99.90;;;;;;5070516;28;19925;-71
2022/07/31 10:53:57;;;;;;;;;;;21.20;99.90;;;;;;5068673;28;20011;-72
2022/07/31 10:56:23;;;;;;;;;;;21.20;99.90;;;;;;5069440;28;19993;-71
2022/07/31 10:58:50;;;;;;;;;;;21.20;99.90;;;;;;5078665;28;19924;-71
2022/07/31 11:01:16;;;;;;;;;;;21.30;99.90;;;;;;5089207;28;20011;-71
2022/07/31 11:03:45;;;;;;;;;;;21.20;99.90;;;;;;5079869;28;20458;-71
2022/07/31 11:06:11;;;;;;;;;;;21.20;99.90;;;;;;5082636;28;19924;-71
2022/07/31 11:08:40;;;;;;;;;;;21.20;99.90;;;;;;5080477;28;19934;-72
2022/07/31 11:11:05;;;;;;;;;;;21.20;99.90;;;;;;5088913;28;20009;-72
2022/07/31 11:13:32;;;;;;;;;;;21.20;99.90;;;;;;5089545;28;20502;-72
2022/07/31 11:16:04;;;;;;;;;;;21.20;99.90;;;;;;5071396;28;19925;-72
2022/07/31 11:18:30;;;;;;;;;;;21.20;99.90;;;;;;5068747;28;19924;-71
2022/07/31 11:20:59;;;;;;;;;;;21.10;99.90;;;;;;5087522;28;20587;-72
2022/07/31 11:23:28;;;;;;;;;;;21.10;99.90;;;;;;5089358;28;19931;-71
2022/07/31 11:25:57;;;;;;;;;;;21.10;99.90;;;;;;5088556;28;19924;-72
2022/07/31 11:28:23;;;;;;;;;;;21.10;99.90;;;;;;5088116;28;20028;-73
2022/07/31 11:30:59;;;;;;;;;;;21.00;99.90;;;;;;5087857;28;19924;-73
2022/07/31 11:33:28;;;;;;;;;;;21.00;99.90;;;;;;5089680;28;19985;-73
2022/07/31 11:35:55;;;;;;;;;;;20.90;99.90;;;;;;5080782;28;20697;-71
2022/07/31 11:38:27;;;;;;;;;;;20.80;99.90;;;;;;5090305;28;20400;-72
2022/07/31 11:40:53;;;;;;;;;;;20.70;99.90;;;;;;5073162;28;20004;-72
2022/07/31 11:43:18;;;;;;;;;;;20.70;99.90;;;;;;5073181;28;20024;-71
2022/07/31 11:45:45;;;;;;;;;;;20.60;99.90;;;;;;5082446;28;19924;-71
2022/07/31 11:48:13;;;;;;;;;;;20.60;99.90;;;;;;5076847;28;19940;-71
2022/07/31 11:50:39;;;;;;;;;;;20.50;99.90;;;;;;5083141;28;20389;-72
2022/07/31 11:53:05;;;;;;;;;;;20.50;99.90;;;;;;5092971;28;19924;-72
2022/07/31 11:55:42;;;;;;;;;;;20.40;99.90;;;;;;5083126;28;19924;-72
2022/07/31 11:58:10;;;;;;;;;;;20.40;99.90;;;;;;5077262;28;19974;-72
2022/07/31 12:00:35;;;;;;;;;;;20.30;99.90;;;;;;5091750;28;19928;-72
2022/07/31 12:03:01;;;;;;;;;;;20.30;99.90;;;;;;5091239;28;19985;-72
2022/07/31 12:05:26;;;;;;;;;;;20.30;99.90;;;;;;5091840;28;19969;-71
2022/07/31 12:07:52;;;;;;;;;;;20.30;99.90;;;;;;5074845;28;19925;-71
2022/07/31 12:10:17;;;;;;;;;;;20.40;99.90;;;;;;5070089;28;19940;-73
2022/07/31 12:12:43;;;;;;;;;;;20.40;99.90;;;;;;5069604;28;19985;-72
2022/07/31 12:15:27;;;;;;;;;;;20.40;99.90;;;;;;5073101;28;19928;-72
2022/07/31 12:18:00;;;;;;;;;;;20.40;99.90;;;;;;5075581;28;19924;-71
2022/07/31 12:20:25;;;;;;;;;;;20.40;99.90;;;;;;5089273;28;19989;-72
2022/07/31 12:22:58;;;;;;;;;;;20.40;99.90;;;;;;5089567;28;19923;-72
2022/07/31 12:25:23;;;;;;;;;;;20.40;99.90;;;;;;5086225;28;20015;-72
2022/07/31 12:27:53;;;;;;;;;;;20.30;99.90;;;;;;5085481;28;19938;-72
2022/07/31 12:30:19;;;;;;;;;;;20.20;99.90;;;;;;5076318;28;19976;-73
2022/07/31 12:32:44;;;;;;;;;;;20.10;99.90;;;;;;5074489;28;19929;-72
2022/07/31 12:35:10;;;;;;;;;;;20.00;99.90;;;;;;5074817;28;19935;-71
2022/07/31 12:37:43;;;;;;;;;;;19.90;99.90;;;;;;5071225;28;20359;-72
2022/07/31 12:40:19;;;;;;;;;;;19.90;99.90;;;;;;5071737;28;19924;-71
2022/07/31 12:42:45;;;;;;;;;;;19.80;99.90;;;;;;5076279;28;19932;-71
2022/07/31 12:45:10;;;;;;;;;;;19.80;99.90;;;;;;5075059;28;20491;-70
2022/07/31 12:47:36;;;;;;;;;;;19.70;99.90;;;;;;5080411;28;20391;-70
2022/07/31 12:50:02;;;;;;;;;;;19.60;99.90;;;;;;5071919;28;20030;-71
2022/07/31 12:52:30;;;;;;;;;;;19.50;99.90;;;;;;5070996;28;19989;-72
2022/07/31 12:54:55;;;;;;;;;;;19.50;99.90;;;;;;5078086;28;20007;-71
2022/07/31 12:57:21;;;;;;;;;;;19.30;99.90;;;;;;5091492;28;20527;-71
2022/07/31 12:59:47;;;;;;;;;;;19.30;99.90;;;;;;5073357;28;19924;-71
2022/07/31 13:02:12;;;;;;;;;;;19.30;99.90;;;;;;5076644;28;19944;-71
2022/07/31 13:04:38;;;;;;;;;;;19.30;99.90;;;;;;5074674;28;19969;-71
2022/07/31 13:07:03;;;;;;;;;;;19.30;99.90;;;;;;5074383;28;20303;-71
2022/07/31 13:09:29;;;;;;;;;;;19.30;99.90;;;;;;5082383;28;19924;-72
2022/07/31 13:11:55;;;;;;;;;;;19.20;99.90;;;;;;5081176;28;19924;-71
2022/07/31 13:14:22;;;;;;;;;;;19.20;99.90;;;;;;5089743;28;20557;-72
2022/07/31 13:16:50;;;;;;;;;;;19.30;99.90;;;;;;5086803;28;20404;-72
2022/07/31 13:19:16;;;;;;;;;;;19.20;99.90;;;;;;5084844;28;19966;-72
2022/07/31 13:21:43;;;;;;;;;;;19.20;99.90;;;;;;5072258;28;20013;-72
2022/07/31 13:24:09;;;;;;;;;;;19.30;99.90;;;;;;5075675;28;19924;-72
2022/07/31 13:26:35;;;;;;;;;;;19.30;99.90;;;;;;5076409;28;20027;-72
2022/07/31 13:29:01;;;;;;;;;;;19.30;99.90;;;;;;5079352;28;19931;-72
2022/07/31 13:31:26;;;;;;;;;;;19.40;99.90;;;;;;5076573;28;19924;-72
2022/07/31 13:33:52;;;;;;;;;;;19.40;99.90;;;;;;5084546;28;19924;-72
2022/07/31 13:36:17;;;;;;;;;;;19.40;99.90;;;;;;5071251;28;20357;-71
2022/07/31 13:38:43;;;;;;;;;;;19.40;99.90;;;;;;5070602;28;19925;-72
2022/07/31 13:41:22;;;;;;;;;;;19.60;99.90;;;;;;5077749;28;19978;-72
2022/07/31 13:43:48;;;;;;;;;;;19.60;99.90;;;;;;5084192;28;19924;-73
2022/07/31 13:46:14;;;;;;;;;;;19.60;99.90;;;;;;5070373;28;19931;-72
2022/07/31 13:48:39;;;;;;;;;;;19.70;99.90;;;;;;5080941;28;19928;-72
2022/07/31 13:51:05;;;;;;;;;;;19.60;99.90;;;;;;5077966;28;19924;-72
2022/07/31 13:53:31;;;;;;;;;;;19.70;99.90;;;;;;5069321;28;20007;-73
2022/07/31 13:55:57;;;;;;;;;;;19.70;99.90;;;;;;5083159;28;19935;-73
2022/07/31 13:58:25;;;;;;;;;;;19.70;99.90;;;;;;5081848;28;19932;-72
2022/07/31 14:00:51;;;;;;;;;;;19.70;99.90;;;;;;5076337;28;19925;-71
2022/07/31 14:03:17;;;;;;;;;;;19.70;99.90;;;;;;5080960;28;19928;-69
2022/07/31 14:05:42;;;;;;;;;;;19.70;99.90;;;;;;5063594;28;20333;-72
2022/07/31 14:08:08;;;;;;;;;;;19.70;99.90;;;;;;5070040;28;19967;-72
2022/07/31 14:10:33;;;;;;;;;;;19.70;99.90;;;;;;5083199;28;19928;-72
2022/07/31 14:12:59;;;;;;;;;;;19.70;99.90;;;;;;5077653;28;19970;-72